Time;durP1;ratioP1;P1;durP2;ratioP2;P2;SDS_P1;SDS_P2;PMS_P1;PMS_P2;Temp;Humidity;BMP_temperature;BMP_pressure;BME280_temperature;BME280_humidity;BME280_pressure;Samples;Min_cycle;Max_cycle;Signal;HPM_P1;HPM_P2
2021/06/28 00:01:22;;;;;;;17.88;7.63;;;;;;;23.81;74.04;99937.00;5060411;28;20048;-67
2021/06/28 00:03:48;;;;;;;16.02;7.93;;;;;;;23.73;74.56;99933.88;5060075;28;20330;-67
2021/06/28 00:06:14;;;;;;;22.88;8.48;;;;;;;23.81;74.32;99933.47;5062808;28;20579;-67
2021/06/28 00:08:41;;;;;;;22.90;8.25;;;;;;;23.82;73.91;99918.88;5060760;28;20032;-69
2021/06/28 00:11:08;;;;;;;21.10;8.52;;;;;;;23.92;73.70;99937.97;5065919;28;20033;-68
2021/06/28 00:13:35;;;;;;;20.33;7.82;;;;;;;24.03;73.37;99931.72;5062157;28;20334;-69
2021/06/28 00:16:01;;;;;;;17.05;7.60;;;;;;;24.07;73.06;99923.94;5066134;28;20227;-69
2021/06/28 00:18:26;;;;;;;23.27;8.45;;;;;;;24.03;73.03;99931.72;5065212;28;20020;-67
2021/06/28 00:20:52;;;;;;;23.52;8.77;;;;;;;23.93;73.63;99928.00;5065315;28;20104;-67
2021/06/28 00:23:18;;;;;;;21.02;8.15;;;;;;;23.85;74.17;99934.63;5061822;28;20048;-66
2021/06/28 00:25:44;;;;;;;19.17;8.93;;;;;;;23.71;74.85;99931.41;5059090;28;20024;-66
2021/06/28 00:28:10;;;;;;;18.50;8.30;;;;;;;23.76;74.35;99934.19;5064727;28;20044;-67
2021/06/28 00:30:41;;;;;;;20.85;8.93;;;;;;;23.75;74.48;99940.66;5057100;28;20270;-69
2021/06/28 00:33:11;;;;;;;17.70;8.20;;;;;;;23.87;74.12;99946.00;5065864;28;20041;-67
2021/06/28 00:35:37;;;;;;;22.52;8.88;;;;;;;23.83;73.96;99942.16;5066393;28;20280;-69
2021/06/28 00:38:04;;;;;;;23.50;9.27;;;;;;;23.89;73.94;99939.28;5061675;28;20097;-67
2021/06/28 00:40:30;;;;;;;20.08;8.85;;;;;;;23.81;74.26;99941.56;5064252;28;20760;-69
2021/06/28 00:42:56;;;;;;;21.70;8.93;;;;;;;23.92;73.68;99945.28;5064194;28;20044;-67
2021/06/28 00:45:39;;;;;;;22.98;9.10;;;;;;;23.95;73.30;99942.13;5066041;28;20326;-69
2021/06/28 00:48:08;;;;;;;23.17;9.57;;;;;;;23.88;73.73;99947.66;5054881;28;20033;-69
2021/06/28 00:50:36;;;;;;;24.02;9.80;;;;;;;23.74;73.87;99928.22;5069004;28;20028;-67
2021/06/28 00:53:05;;;;;;;23.45;8.90;;;;;;;23.74;74.30;99943.63;5066044;28;20040;-69
2021/06/28 00:55:31;;;;;;;25.17;9.60;;;;;;;23.81;73.72;99941.56;5061608;28;20021;-67
2021/06/28 00:57:57;;;;;;;19.98;9.38;;;;;;;23.65;74.51;99937.78;5068911;28;20411;-66
2021/06/28 01:00:24;;;;;;;23.25;8.88;;;;;;;23.56;74.84;99942.75;5063405;28;20029;-66
2021/06/28 01:02:50;;;;;;;24.63;8.77;;;;;;;23.54;74.99;99942.19;5058937;28;20040;-67
2021/06/28 01:05:19;;;;;;;20.50;8.77;;;;;;;23.46;75.02;99936.31;5064885;28;20032;-67
2021/06/28 01:07:46;;;;;;;23.67;8.48;;;;;;;23.32;75.56;99922.28;5062973;28;20037;-68
2021/06/28 01:10:12;;;;;;;25.98;9.80;;;;;;;23.46;75.07;99929.03;5065922;28;20052;-69
2021/06/28 01:12:39;;;;;;;21.75;8.85;;;;;;;23.55;74.68;99937.59;5067896;28;20064;-69
2021/06/28 01:15:05;;;;;;;19.13;8.43;;;;;;;23.52;74.66;99932.66;5058797;28;20051;-67
2021/06/28 01:17:32;;;;;;;29.73;10.25;;;;;;;23.29;75.63;99930.03;5069803;28;20238;-69
2021/06/28 01:20:01;;;;;;;21.60;9.23;;;;;;;23.21;75.49;99923.97;5066699;28;20040;-67
2021/06/28 01:22:31;;;;;;;28.88;9.10;;;;;;;23.04;76.68;99927.66;5070737;28;20036;-67
2021/06/28 01:24:59;;;;;;;31.75;9.23;;;;;;;23.04;76.52;99925.78;5061751;28;20195;-67
2021/06/28 01:27:26;;;;;;;20.40;9.05;;;;;;;23.05;76.79;99922.00;5069604;28;20314;-67
2021/06/28 01:29:53;;;;;;;30.55;9.73;;;;;;;22.85;77.23;99918.84;5065416;28;20044;-67
2021/06/28 01:32:21;;;;;;;27.55;9.15;;;;;;;22.76;77.69;99912.97;5065750;28;20025;-69
2021/06/28 01:34:46;;;;;;;26.27;9.05;;;;;;;22.95;77.38;99921.81;5066038;28;20040;-67
2021/06/28 01:37:19;;;;;;;28.58;10.20;;;;;;;22.85;77.75;99926.97;5071244;28;20024;-68
2021/06/28 01:39:49;;;;;;;25.20;9.35;;;;;;;22.82;77.92;99916.63;5062340;28;20028;-67
2021/06/28 01:42:16;;;;;;;33.20;9.40;;;;;;;22.84;78.19;99936.94;5065835;28;20047;-67
2021/06/28 01:44:41;;;;;;;32.45;10.60;;;;;;;22.89;77.67;99931.69;5064948;28;20224;-66
2021/06/28 01:47:07;;;;;;;28.50;9.93;;;;;;;22.90;77.80;99927.91;5069695;28;20060;-67
2021/06/28 01:49:32;;;;;;;27.45;10.05;;;;;;;22.83;78.07;99929.06;5064649;28;20029;-66
2021/06/28 01:51:58;;;;;;;24.27;9.48;;;;;;;22.96;77.30;99934.25;5065045;28;20327;-69
2021/06/28 01:54:27;;;;;;;18.10;9.88;;;;;;;22.92;77.23;99935.78;5068273;28;20024;-67
2021/06/28 01:56:52;;;;;;;24.20;8.85;;;;;;;23.02;76.93;99932.47;5066708;28;20286;-69
2021/06/28 01:59:18;;;;;;;31.88;9.38;;;;;;;22.89;77.06;99936.25;5071092;28;20039;-67
2021/06/28 02:01:43;;;;;;;30.45;9.90;;;;;;;22.71;78.12;99922.84;5072085;28;20318;-69
2021/06/28 02:04:19;;;;;;;20.85;8.73;;;;;;;22.65;78.66;99934.59;5062632;28;20050;-69
2021/06/28 02:06:45;;;;;;;29.02;8.57;;;;;;;22.85;77.45;99935.06;5069885;28;20028;-69
2021/06/28 02:09:11;;;;;;;25.25;7.95;;;;;;;22.85;77.12;99930.47;5072763;28;20037;-67
2021/06/28 02:11:36;;;;;;;25.05;9.13;;;;;;;22.79;77.49;99917.91;5063970;28;20040;-69
2021/06/28 02:14:02;;;;;;;24.85;9.02;;;;;;;23.00;76.33;99921.09;5064295;28;20032;-67
2021/06/28 02:16:27;;;;;;;29.50;9.68;;;;;;;22.92;76.54;99920.41;5066800;28;20033;-67
2021/06/28 02:18:53;;;;;;;24.13;9.52;;;;;;;22.97;76.09;99922.38;5068966;28;20024;-67
2021/06/28 02:21:18;;;;;;;27.13;9.15;;;;;;;22.88;76.71;99926.47;5068130;28;20039;-67
2021/06/28 02:23:44;;;;;;;38.10;9.38;;;;;;;22.83;76.66;99927.19;5065195;28;20032;-68
2021/06/28 02:26:13;;;;;;;31.95;9.75;;;;;;;23.10;75.47;99929.41;5059632;28;20059;-66
2021/06/28 02:28:43;;;;;;;33.20;9.32;;;;;;;23.00;75.62;99935.41;5065163;28;20043;-67
2021/06/28 02:31:11;;;;;;;25.77;8.77;;;;;;;23.00;75.80;99934.59;5063786;28;20040;-67
2021/06/28 02:33:38;;;;;;;30.52;9.15;;;;;;;23.01;75.54;99936.22;5067833;28;20032;-67
2021/06/28 02:36:04;;;;;;;26.25;8.60;;;;;;;22.88;75.64;99934.59;5071283;28;20390;-67
2021/06/28 02:38:30;;;;;;;23.17;8.63;;;;;;;22.74;76.20;99936.69;5065335;28;20491;-67
2021/06/28 02:40:56;;;;;;;37.50;9.00;;;;;;;22.56;76.96;99932.25;5070357;28;20387;-68
2021/06/28 02:43:22;;;;;;;30.42;9.25;;;;;;;22.58;76.96;99934.72;5071293;28;20029;-67
2021/06/28 02:45:48;;;;;;;25.15;8.38;;;;;;;22.47;76.88;99930.97;5065736;28;20029;-67
2021/06/28 02:48:14;;;;;;;28.20;7.57;;;;;;;22.47;76.87;99922.88;5070530;28;20043;-67
2021/06/28 02:50:40;;;;;;;23.45;7.68;;;;;;;22.69;75.60;99920.38;5065471;28;20021;-67
2021/06/28 02:53:06;;;;;;;21.92;8.18;;;;;;;22.78;75.41;99940.56;5063849;28;20048;-69
2021/06/28 02:55:32;;;;;;;27.50;8.48;;;;;;;22.79;75.32;99931.41;5064995;28;20067;-67
2021/06/28 02:57:57;;;;;;;27.67;7.65;;;;;;;22.81;75.33;99928.50;5065520;28;20036;-69
2021/06/28 03:00:23;;;;;;;31.10;7.80;;;;;;;22.92;74.89;99931.19;5066247;28;20262;-67
2021/06/28 03:02:49;;;;;;;27.20;7.75;;;;;;;23.15;73.59;99935.72;5067893;28;20053;-67
2021/06/28 03:05:15;;;;;;;24.70;7.45;;;;;;;23.07;74.19;99937.97;5064317;28;20016;-69
2021/06/28 03:07:41;;;;;;;23.38;7.05;;;;;;;23.19;73.46;99931.47;5063154;28;20041;-67
2021/06/28 03:10:10;;;;;;;24.50;7.45;;;;;;;23.28;73.12;99931.91;5066802;28;20033;-67
2021/06/28 03:12:36;;;;;;;29.38;7.75;;;;;;;23.32;72.75;99940.38;5063185;28;20036;-69
2021/06/28 03:15:06;;;;;;;23.58;7.55;;;;;;;23.39;72.56;99941.03;5052746;28;20037;-68
2021/06/28 03:17:32;;;;;;;30.63;7.63;;;;;;;23.35;72.77;99950.69;5047468;28;20215;-69
2021/06/28 03:19:57;;;;;;;23.17;7.35;;;;;;;23.41;72.42;99947.84;5048421;28;20044;-69
2021/06/28 03:22:23;;;;;;;22.60;7.97;;;;;;;23.45;72.15;99951.72;5051878;28;20021;-69
2021/06/28 03:24:48;;;;;;;27.10;7.07;;;;;;;23.24;72.49;99957.78;5043752;28;20043;-67
2021/06/28 03:27:14;;;;;;;27.48;7.05;;;;;;;23.23;72.52;99953.44;5046989;28;20033;-67
2021/06/28 03:29:39;;;;;;;24.55;6.97;;;;;;;23.33;71.92;99959.03;5043611;28;20034;-69
2021/06/28 03:32:05;;;;;;;22.40;6.95;;;;;;;23.38;71.75;99966.44;5043135;28;20040;-69
2021/06/28 03:34:30;;;;;;;27.15;7.38;;;;;;;23.42;71.90;99967.59;5040058;28;20029;-69
2021/06/28 03:36:56;;;;;;;22.70;7.38;;;;;;;23.49;71.61;99965.56;5049733;28;20037;-68
2021/06/28 03:39:21;;;;;;;20.17;6.55;;;;;;;23.44;71.25;99968.97;5046403;28;20219;-69
2021/06/28 03:41:47;;;;;;;21.33;6.13;;;;;;;23.29;72.10;99971.38;5043047;28;20037;-69
2021/06/28 03:44:12;;;;;;;21.17;7.28;;;;;;;23.24;72.92;99974.81;5044963;28;20025;-66
2021/06/28 03:46:38;;;;;;;20.35;7.43;;;;;;;23.32;72.58;99973.59;5042896;28;20323;-67
2021/06/28 03:49:03;;;;;;;25.83;7.60;;;;;;;23.24;72.74;99966.69;5042431;28;20027;-66
2021/06/28 03:51:29;;;;;;;17.73;6.88;;;;;;;23.19;72.75;99982.00;5044345;28;20037;-67
2021/06/28 03:53:55;;;;;;;21.77;7.00;;;;;;;23.16;72.74;99977.06;5038624;28;20021;-66
2021/06/28 03:56:20;;;;;;;25.45;7.40;;;;;;;23.35;71.71;99975.84;5047221;28;20037;-69
2021/06/28 03:58:46;;;;;;;26.30;8.10;;;;;;;23.33;71.47;99980.66;5042597;28;20033;-67
2021/06/28 04:01:11;;;;;;;26.52;6.95;;;;;;;23.36;72.04;99971.25;5028592;28;20022;-67
2021/06/28 04:03:38;;;;;;;28.48;6.93;;;;;;;23.42;71.54;99981.91;5039244;28;20038;-69
2021/06/28 04:06:05;;;;;;;23.67;7.35;;;;;;;23.17;71.19;99949.00;5043614;28;20090;-69
2021/06/28 04:08:32;;;;;;;23.05;6.63;;;;;;;23.42;70.77;99989.19;5045608;28;20053;-67
2021/06/28 04:10:58;;;;;;;24.60;7.45;;;;;;;23.50;70.74;99986.13;5049262;28;20032;-69
2021/06/28 04:13:24;;;;;;;18.05;6.38;;;;;;;23.45;71.02;99986.84;5043116;28;20319;-67
2021/06/28 04:15:49;;;;;;;22.90;7.00;;;;;;;23.29;71.70;99973.25;5041790;28;20025;-69
2021/06/28 04:18:15;;;;;;;28.63;7.85;;;;;;;23.30;72.28;99980.31;5047054;28;20624;-69
2021/06/28 04:20:41;;;;;;;29.40;8.13;;;;;;;23.32;72.29;99981.72;5044282;28;20044;-67
2021/06/28 04:23:07;;;;;;;21.88;7.47;;;;;;;23.58;71.65;99991.19;5046566;28;20026;-68
2021/06/28 04:25:32;;;;;;;20.77;7.50;;;;;;;23.93;71.00;99985.63;5046393;28;20025;-67
2021/06/28 04:27:58;;;;;;;23.58;7.30;;;;;;;24.00;70.07;99980.88;5049107;28;20049;-66
2021/06/28 04:30:24;;;;;;;20.38;7.03;;;;;;;24.32;68.79;99978.47;5038755;28;20029;-67
2021/06/28 04:32:50;;;;;;;26.92;7.75;;;;;;;24.41;68.72;99978.88;5045994;28;20025;-69
2021/06/28 04:35:20;;;;;;;21.55;7.13;;;;;;;24.29;68.65;99973.56;5049458;28;20037;-68
2021/06/28 04:37:46;;;;;;;21.08;8.63;;;;;;;24.48;67.77;99968.72;5043539;28;20060;-68
2021/06/28 04:40:17;;;;;;;23.08;7.35;;;;;;;24.95;66.47;99969.09;5040063;28;20021;-69
2021/06/28 04:42:42;;;;;;;23.27;7.72;;;;;;;24.68;66.01;99952.75;5049660;28;20043;-67
2021/06/28 04:45:10;;;;;;;24.15;6.70;;;;;;;25.19;66.25;99974.34;5045645;28;20037;-67
2021/06/28 04:47:36;;;;;;;23.35;6.85;;;;;;;25.28;65.60;99970.94;5046962;28;20042;-67
2021/06/28 04:50:03;;;;;;;18.98;7.13;;;;;;;25.28;66.00;99975.53;5046214;28;20033;-69
2021/06/28 04:52:33;;;;;;;18.15;7.10;;;;;;;25.54;65.79;99976.66;5043603;28;20029;-69
2021/06/28 04:54:59;;;;;;;18.38;7.30;;;;;;;25.73;64.52;99969.84;5038576;28;20044;-68
2021/06/28 04:57:25;;;;;;;22.17;6.80;;;;;;;26.22;64.02;99967.06;5045218;28;20029;-69
2021/06/28 04:59:50;;;;;;;23.85;7.68;;;;;;;26.79;62.02;99974.53;5046057;28;20361;-68
2021/06/28 05:02:16;;;;;;;19.10;7.18;;;;;;;26.96;62.00;99975.16;5045355;28;20214;-66
2021/06/28 05:04:41;;;;;;;22.90;7.30;;;;;;;27.26;60.30;99986.25;5045440;28;20037;-68
2021/06/28 05:07:07;;;;;;;13.15;6.72;;;;;;;27.69;58.99;99983.41;5041069;28;20025;-66
2021/06/28 05:09:32;;;;;;;23.08;7.40;;;;;;;28.14;58.04;99982.69;5050132;28;20194;-66
2021/06/28 05:11:58;;;;;;;17.75;6.78;;;;;;;28.33;56.56;99977.53;5041915;28;20032;-69
2021/06/28 05:14:24;;;;;;;13.68;6.68;;;;;;;28.40;56.48;99981.63;5049395;28;20210;-67
2021/06/28 05:16:50;;;;;;;13.07;6.13;;;;;;;28.36;56.07;99996.06;5071355;28;20049;-67
2021/06/28 05:19:15;;;;;;;14.80;6.35;;;;;;;28.86;55.30;99987.03;5060080;28;20025;-67
2021/06/28 05:21:41;;;;;;;13.52;6.63;;;;;;;29.15;54.31;99985.31;5065615;28;20033;-69
2021/06/28 05:24:07;;;;;;;11.73;6.20;;;;;;;29.40;53.39;99991.75;5068539;28;20032;-69
2021/06/28 05:26:32;;;;;;;16.98;6.18;;;;;;;29.29;53.52;99996.44;5057332;28;20044;-69
2021/06/28 05:28:57;;;;;;;20.80;6.72;;;;;;;29.43;53.25;99996.69;5049141;28;20306;-67
2021/06/28 05:31:26;;;;;;;14.52;5.97;;;;;;;29.36;51.82;99996.13;5067265;28;20351;-70
2021/06/28 05:33:51;;;;;;;15.75;5.57;;;;;;;29.52;51.75;99993.09;5068912;28;20024;-68
2021/06/28 05:36:17;;;;;;;10.32;6.07;;;;;;;29.95;50.18;99998.00;5066135;28;20040;-66
2021/06/28 05:38:42;;;;;;;11.75;5.90;;;;;;;30.22;50.25;100003.88;5063336;28;20327;-66
2021/06/28 05:41:07;;;;;;;11.15;6.20;;;;;;;30.27;49.79;99994.81;5061792;28;20037;-68
2021/06/28 05:43:33;;;;;;;17.38;6.43;;;;;;;30.52;49.93;99999.25;5069486;28;20035;-68
2021/06/28 05:45:58;;;;;;;15.45;6.03;;;;;;;30.81;48.33;100000.88;5060735;28;20090;-68
2021/06/28 05:48:24;;;;;;;13.75;6.03;;;;;;;30.50;49.64;100007.72;5063667;28;20036;-68
2021/06/28 05:50:50;;;;;;;19.67;6.45;;;;;;;30.81;48.89;100000.06;5061027;28;20338;-70
2021/06/28 05:53:15;;;;;;;13.43;6.10;;;;;;;31.17;48.00;99995.03;5062380;28;20025;-70
2021/06/28 05:55:41;;;;;;;12.07;5.50;;;;;;;31.17;47.87;100000.50;5065751;28;20033;-70
2021/06/28 05:58:06;;;;;;;12.18;6.03;;;;;;;31.25;47.34;99991.69;5057788;28;20334;-67
2021/06/28 06:00:32;;;;;;;11.50;5.63;;;;;;;31.23;47.82;99999.38;5061228;28;20198;-69
2021/06/28 06:03:00;;;;;;;13.02;5.80;;;;;;;31.88;46.60;100007.00;5061693;28;20094;-68
2021/06/28 06:05:26;;;;;;;13.57;6.03;;;;;;;31.96;45.25;99996.19;5060684;28;20029;-68
2021/06/28 06:07:51;;;;;;;14.02;5.72;;;;;;;31.72;46.20;99992.72;5056496;28;20050;-67
2021/06/28 06:10:18;;;;;;;12.57;5.53;;;;;;;31.92;44.48;99997.09;5063280;28;20048;-70
2021/06/28 06:12:44;;;;;;;14.95;5.43;;;;;;;32.25;43.26;100004.28;5059297;28;20041;-66
2021/06/28 06:15:11;;;;;;;18.17;5.50;;;;;;;32.22;44.62;100001.28;5061504;28;20379;-68
2021/06/28 06:17:37;;;;;;;14.13;5.28;;;;;;;32.22;43.79;99999.34;5038480;28;20044;-66
2021/06/28 06:20:05;;;;;;;12.27;4.50;;;;;;;32.54;42.95;99993.09;5060428;28;20275;-67
2021/06/28 06:22:30;;;;;;;9.90;4.68;;;;;;;32.40;43.31;100002.41;5058183;28;20040;-68
2021/06/28 06:24:55;;;;;;;15.02;5.60;;;;;;;32.62;43.19;100003.38;5063385;28;20033;-69
2021/06/28 06:27:21;;;;;;;12.90;4.88;;;;;;;33.06;42.44;99999.28;5060019;28;20281;-70
2021/06/28 06:29:46;;;;;;;16.70;4.32;;;;;;;33.21;42.00;99987.97;5061754;28;20033;-69
2021/06/28 06:32:13;;;;;;;8.38;4.47;;;;;;;33.34;40.18;99980.91;5064747;28;20035;-68
2021/06/28 06:34:38;;;;;;;10.50;4.10;;;;;;;33.41;39.58;99991.47;5063307;28;20035;-68
2021/06/28 06:37:04;;;;;;;15.70;4.70;;;;;;;33.43;39.88;99989.25;5063555;28;20314;-70
2021/06/28 06:39:31;;;;;;;10.02;4.38;;;;;;;33.43;38.06;99978.25;5064003;28;20028;-69
2021/06/28 06:41:58;;;;;;;6.75;4.43;;;;;;;33.36;38.31;99981.41;5064212;28;20040;-68
2021/06/28 06:44:23;;;;;;;7.43;4.38;;;;;;;33.51;37.61;99989.31;5061178;28;20040;-68
2021/06/28 06:46:49;;;;;;;11.73;4.60;;;;;;;33.70;36.04;99978.19;5058367;28;20234;-67
2021/06/28 06:49:14;;;;;;;8.60;4.20;;;;;;;33.63;35.89;99981.38;5063916;28;20391;-68
2021/06/28 06:51:40;;;;;;;11.80;4.30;;;;;;;33.80;35.22;99986.19;5061909;28;20036;-69
2021/06/28 06:54:06;;;;;;;16.55;4.60;;;;;;;33.40;36.35;99982.44;5047217;28;20207;-66
2021/06/28 06:56:31;;;;;;;13.73;4.35;;;;;;;33.68;35.79;99974.94;5061144;28;20067;-66
2021/06/28 06:58:57;;;;;;;5.88;4.38;;;;;;;33.92;35.11;99970.00;5065614;28;20025;-68
2021/06/28 07:01:23;;;;;;;9.32;4.60;;;;;;;34.34;35.52;99984.41;5062984;28;20302;-70
2021/06/28 07:03:48;;;;;;;12.77;4.65;;;;;;;33.76;35.67;99973.38;5064404;28;20339;-68
2021/06/28 07:06:14;;;;;;;13.38;4.63;;;;;;;33.85;35.76;99979.78;5061628;28;20048;-70
2021/06/28 07:08:40;;;;;;;10.90;4.75;;;;;;;34.16;34.84;99983.44;5065115;28;20094;-70
2021/06/28 07:11:10;;;;;;;9.25;4.25;;;;;;;34.33;34.86;99968.19;5062422;28;20230;-66
2021/06/28 07:13:38;;;;;;;14.63;5.13;;;;;;;34.23;35.46;99977.50;5060997;28;20043;-69
2021/06/28 07:16:04;;;;;;;9.02;4.88;;;;;;;34.39;34.84;99951.28;5064117;28;20111;-67
2021/06/28 07:18:29;;;;;;;11.60;4.85;;;;;;;34.72;34.53;99973.78;5060496;28;20040;-67
2021/06/28 07:20:54;;;;;;;11.80;5.00;;;;;;;34.79;33.14;99965.88;5064166;28;20327;-67
2021/06/28 07:23:20;;;;;;;8.63;4.28;;;;;;;34.94;32.61;99972.09;5064191;28;20036;-64
2021/06/28 07:25:45;;;;;;;13.75;5.07;;;;;;;35.10;32.91;99973.28;5063550;28;20066;-64
2021/06/28 07:28:11;;;;;;;7.03;4.40;;;;;;;35.42;32.14;99964.69;5062971;28;20055;-65
2021/06/28 07:30:37;;;;;;;8.18;4.13;;;;;;;35.31;31.79;99965.25;5063497;28;20031;-66
2021/06/28 07:33:04;;;;;;;7.13;4.82;;;;;;;35.19;31.63;99963.94;5063171;28;20267;-68
2021/06/28 07:35:29;;;;;;;9.18;4.72;;;;;;;34.98;33.34;99970.34;5063131;28;20992;-69
2021/06/28 07:37:55;;;;;;;11.57;5.10;;;;;;;34.82;33.04;99969.97;5062569;28;20056;-67
2021/06/28 07:40:21;;;;;;;7.78;4.65;;;;;;;34.89;33.22;99964.81;5063005;28;20033;-66
2021/06/28 07:42:49;;;;;;;12.43;4.70;;;;;;;35.43;32.49;99959.97;5062912;28;20039;-68
2021/06/28 07:45:16;;;;;;;11.35;4.18;;;;;;;35.70;31.84;99972.63;5062862;28;20071;-68
2021/06/28 07:47:43;;;;;;;10.40;4.70;;;;;;;35.59;32.25;99969.38;5062843;28;20043;-67
2021/06/28 07:50:10;;;;;;;8.00;4.25;;;;;;;35.06;32.40;99972.31;5062757;28;20031;-68
2021/06/28 07:52:57;;;;;;;10.70;4.35;;;;;;;35.51;31.97;99964.69;5062751;28;20063;-66
2021/06/28 07:55:22;;;;;;;8.40;4.70;;;;;;;35.43;33.54;99968.25;5062195;28;20045;-66
2021/06/28 07:57:48;;;;;;;7.18;4.15;;;;;;;35.33;32.42;99968.50;5062632;28;20044;-68
2021/06/28 08:00:17;;;;;;;6.97;4.30;;;;;;;34.93;32.11;99963.03;5062660;28;20025;-69
2021/06/28 08:02:43;;;;;;;12.95;4.63;;;;;;;35.42;32.35;99964.69;5062434;28;20056;-67
2021/06/28 08:05:09;;;;;;;7.03;3.80;;;;;;;35.64;31.38;99965.66;5062590;28;20021;-65
2021/06/28 08:07:35;;;;;;;10.63;4.40;;;;;;;36.14;30.65;99961.28;5062182;28;20033;-70
2021/06/28 08:10:03;;;;;;;8.65;3.92;;;;;;;36.41;29.30;99953.78;5061234;28;20056;-70
2021/06/28 08:12:29;;;;;;;5.82;3.55;;;;;;;36.74;29.43;99968.63;5063157;28;20049;-70
2021/06/28 08:14:54;;;;;;;5.88;3.95;;;;;;;36.70;28.27;99966.84;5062539;28;20397;-68
2021/06/28 08:17:20;;;;;;;7.82;3.58;;;;;;;37.26;27.94;99959.31;5064493;28;20052;-70
2021/06/28 08:19:47;;;;;;;5.00;3.53;;;;;;;37.13;27.22;99971.38;5061251;28;20054;-67
2021/06/28 08:22:13;;;;;;;12.95;3.78;;;;;;;36.84;28.20;99964.72;5064402;28;20238;-68
2021/06/28 08:24:39;;;;;;;11.07;4.28;;;;;;;36.74;28.95;99970.56;5060430;28;20092;-68
2021/06/28 08:27:05;;;;;;;6.30;3.65;;;;;;;37.17;27.32;99961.28;5061345;28;20070;-67
2021/06/28 08:29:30;;;;;;;11.93;3.63;;;;;;;37.11;27.18;99957.09;5062327;28;20032;-68
2021/06/28 08:31:56;;;;;;;9.05;4.22;;;;;;;37.01;28.54;99955.53;5061555;28;20151;-68
2021/06/28 08:34:21;;;;;;;7.40;3.40;;;;;;;37.62;26.50;99956.00;5063914;28;20036;-68
2021/06/28 08:36:47;;;;;;;4.63;3.55;;;;;;;37.68;26.24;99952.69;5063757;28;20362;-69
2021/06/28 08:39:16;;;;;;;9.50;3.60;;;;;;;37.36;27.65;99945.91;5063032;28;20055;-70
2021/06/28 08:41:45;;;;;;;10.13;3.70;;;;;;;37.14;27.26;99953.69;5061407;28;20032;-69
2021/06/28 08:44:12;;;;;;;6.25;3.35;;;;;;;37.40;26.66;99959.88;5061417;28;20039;-70
2021/06/28 08:46:39;;;;;;;5.70;3.20;;;;;;;37.54;25.96;99951.34;5061771;28;20044;-70
2021/06/28 08:49:06;;;;;;;5.82;3.17;;;;;;;37.37;26.20;99942.00;5060665;28;20029;-68
2021/06/28 08:51:31;;;;;;;7.22;3.63;;;;;;;37.60;25.97;99942.50;5062531;28;20037;-70
2021/06/28 08:53:57;;;;;;;4.53;2.72;;;;;;;37.98;24.60;99942.38;5061117;28;20313;-68
2021/06/28 08:56:23;;;;;;;9.38;3.33;;;;;;;38.38;24.10;99943.75;5060989;28;20158;-68
2021/06/28 08:58:49;;;;;;;3.67;2.67;;;;;;;38.53;23.19;99945.88;5061389;28;20052;-69
2021/06/28 09:01:15;;;;;;;12.35;3.50;;;;;;;37.84;24.36;99938.28;5061276;28;20033;-68
2021/06/28 09:03:40;;;;;;;4.10;2.80;;;;;;;37.74;23.80;99933.97;5061465;28;20095;-67
2021/06/28 09:06:07;;;;;;;5.65;3.50;;;;;;;37.81;25.56;99922.38;5061158;28;20325;-69
2021/06/28 09:08:36;;;;;;;6.82;3.55;;;;;;;37.93;23.91;99931.53;5061114;28;20033;-69
2021/06/28 09:11:03;;;;;;;7.07;3.13;;;;;;;37.62;23.87;99926.41;5061164;28;20041;-69
2021/06/28 09:13:44;;;;;;;6.97;2.72;;;;;;;37.52;23.05;99918.53;5061196;28;20032;-67
2021/06/28 09:16:23;;;;;;;5.28;2.28;;;;;;;37.78;22.38;99925.81;5060879;28;20106;-67
2021/06/28 09:18:53;;;;;;;9.18;3.05;;;;;;;37.97;22.01;99920.59;5042090;28;20033;-70
2021/06/28 09:21:30;;;;;;;6.30;3.67;;;;;;;37.82;23.21;99924.00;5060959;28;20029;-67
2021/06/28 09:23:57;;;;;;;5.38;2.65;;;;;;;37.30;25.46;99913.31;5061394;28;20029;-67
2021/06/28 09:26:35;;;;;;;5.13;3.08;;;;;;;37.62;24.52;99920.88;5060821;28;20041;-69
2021/06/28 09:29:05;;;;;;;4.35;2.90;;;;;;;37.69;23.92;99912.06;5061566;28;20025;-68
2021/06/28 09:31:43;;;;;;;7.13;3.33;;;;;;;37.76;24.35;99915.09;5061136;28;20037;-70
2021/06/28 09:34:19;;;;;;;5.90;3.00;;;;;;;37.39;24.57;99908.53;5060155;28;20329;-67
2021/06/28 09:36:56;;;;;;;7.13;3.47;;;;;;;37.21;24.94;99913.34;5060965;28;20354;-68
2021/06/28 09:39:33;;;;;;;8.05;2.95;;;;;;;37.00;24.78;99912.50;5061220;28;20028;-66
2021/06/28 09:42:07;;;;;;;4.05;3.20;;;;;;;36.87;25.29;99910.81;5059599;28;20028;-68
2021/06/28 09:44:37;;;;;;;6.68;2.70;;;;;;;36.73;25.96;99913.78;5059333;28;20277;-66
2021/06/28 09:47:10;;;;;;;9.85;3.30;;;;;;;36.79;25.63;99918.00;5060668;28;20029;-68
2021/06/28 09:49:37;;;;;;;6.43;2.75;;;;;;;36.55;25.15;99912.22;5060215;28;20374;-68
2021/06/28 09:52:03;;;;;;;4.32;2.63;;;;;;;36.58;24.05;99915.13;5062862;28;20037;-69
2021/06/28 09:54:32;;;;;;;3.17;2.83;;;;;;;36.36;24.37;99902.38;5060387;28;20035;-68
2021/06/28 09:56:58;;;;;;;4.85;3.05;;;;;;;36.21;25.18;99907.59;5061677;28;20104;-69
2021/06/28 09:59:37;;;;;;;8.50;3.03;;;;;;;36.15;26.45;99910.53;5059428;28;20036;-67
2021/06/28 10:02:25;;;;;;;6.88;3.35;;;;;;;35.86;25.88;99917.88;5060191;28;20033;-69
2021/06/28 10:05:05;;;;;;;5.82;2.83;;;;;;;35.84;24.58;99915.44;5063400;28;20729;-67
2021/06/28 10:07:34;;;;;;;7.03;3.42;;;;;;;35.71;25.24;99908.94;5061103;28;20211;-69
2021/06/28 10:10:24;;;;;;;5.57;3.20;;;;;;;35.18;26.37;99906.44;5066016;28;20202;-67
2021/06/28 10:12:52;;;;;;;7.88;2.80;;;;;;;35.16;26.72;99911.47;5064794;28;20052;-68
2021/06/28 10:15:24;;;;;;;5.18;3.05;;;;;;;35.26;27.01;99902.88;5065500;28;20045;-66
2021/06/28 10:17:50;;;;;;;7.97;3.22;;;;;;;35.29;27.09;99906.94;5064882;28;20033;-68
2021/06/28 10:20:20;;;;;;;5.95;2.90;;;;;;;35.26;25.81;99900.13;5062524;28;20405;-68
2021/06/28 10:22:48;;;;;;;8.77;3.03;;;;;;;35.29;25.84;99904.19;5066873;28;20064;-67
2021/06/28 10:25:16;;;;;;;7.45;3.10;;;;;;;35.25;26.23;99897.72;5063986;28;20055;-65
2021/06/28 10:27:42;;;;;;;6.70;2.88;;;;;;;35.31;25.51;99896.41;5065637;28;20350;-70
2021/06/28 10:30:12;;;;;;;5.47;3.08;;;;;;;35.18;24.56;99884.44;5066103;28;20079;-69
2021/06/28 10:32:39;;;;;;;5.05;2.88;;;;;;;35.16;26.26;99881.19;5064128;28;20029;-67
2021/06/28 10:35:07;;;;;;;4.53;2.70;;;;;;;35.20;26.89;99884.91;5061745;28;20253;-67
2021/06/28 10:38:10;;;;;;;9.35;3.10;;;;;;;35.18;25.65;99881.66;5067701;28;20211;-68
2021/06/28 10:40:44;;;;;;;4.53;2.85;;;;;;;35.21;25.79;99878.28;5063231;28;20029;-69
2021/06/28 10:43:34;;;;;;;4.40;2.80;;;;;;;35.34;25.73;99890.28;5063839;28;20218;-69
2021/06/28 10:46:02;;;;;;;4.25;2.80;;;;;;;34.84;25.40;99874.16;5062078;28;20222;-68
2021/06/28 10:48:30;;;;;;;10.00;2.90;;;;;;;35.02;25.04;99869.50;5064464;28;20028;-66
2021/06/28 10:51:06;;;;;;;3.13;2.33;;;;;;;35.16;24.77;99870.97;5068321;28;20086;-66
2021/06/28 10:53:32;;;;;;;3.40;2.50;;;;;;;35.22;23.30;99872.44;5062589;28;20129;-68
2021/06/28 10:56:32;;;;;;;6.55;3.05;;;;;;;35.13;25.45;99870.81;5062982;28;20099;-69
2021/06/28 10:59:06;;;;;;;4.50;2.70;;;;;;;35.07;24.81;99850.09;5067404;28;20025;-67
2021/06/28 11:01:41;;;;;;;4.22;2.45;;;;;;;34.92;25.61;99859.63;5063334;28;20047;-67
2021/06/28 11:04:10;;;;;;;5.45;2.75;;;;;;;34.97;24.45;99861.41;5064102;28;20032;-68
2021/06/28 11:06:37;;;;;;;3.45;2.30;;;;;;;34.99;24.26;99859.16;5063920;28;20032;-67
2021/06/28 11:09:10;;;;;;;4.18;2.40;;;;;;;35.09;22.84;99853.34;5064928;28;20036;-67
2021/06/28 11:11:45;;;;;;;7.55;2.03;;;;;;;35.18;22.52;99852.22;5066252;28;20040;-67
2021/06/28 11:14:38;;;;;;;4.25;2.10;;;;;;;35.13;22.01;99852.38;5062100;28;20107;-70
2021/06/28 11:17:14;;;;;;;5.07;2.00;;;;;;;34.91;22.78;99843.44;5022502;28;20343;-67
2021/06/28 11:19:48;;;;;;;5.97;2.20;;;;;;;34.62;22.13;99842.06;5026031;28;20332;-68
2021/06/28 11:22:30;;;;;;;2.35;1.65;;;;;;;34.80;20.36;99846.47;5025231;28;20034;-68
2021/06/28 11:25:13;;;;;;;2.90;1.95;;;;;;;34.68;19.31;99838.03;5028119;28;20025;-66
2021/06/28 11:28:09;;;;;;;5.25;1.80;;;;;;;34.71;21.00;99842.06;5024672;28;20040;-68
2021/06/28 11:30:36;;;;;;;3.15;2.03;;;;;;;34.63;20.21;99840.91;5023659;28;20043;-68